Time;durP1;ratioP1;P1;durP2;ratioP2;P2;SDS_P1;SDS_P2;PMS_P1;PMS_P2;Temp;Humidity;BMP_temperature;BMP_pressure;BME280_temperature;BME280_humidity;BME280_pressure;Samples;Min_cycle;Max_cycle;Signal;HPM_P1;HPM_P2
2021/07/06 00:00:32;;;;;;;;;;;;;;;29.24;37.03;97039.16;5051910;28;1248;-50
2021/07/06 00:02:57;;;;;;;;;;;;;;;29.38;36.33;97039.41;5050851;28;1596;-50
2021/07/06 00:05:22;;;;;;;;;;;;;;;29.23;36.72;97035.69;5051568;28;1418;-50
2021/07/06 00:07:48;;;;;;;;;;;;;;;29.18;36.96;97037.97;5050736;28;2106;-50
2021/07/06 00:10:13;;;;;;;;;;;;;;;29.19;37.17;97029.00;5051553;28;1177;-50
2021/07/06 00:12:38;;;;;;;;;;;;;;;29.22;36.91;97028.69;5035951;28;1298;-49
2021/07/06 00:15:04;;;;;;;;;;;;;;;29.24;36.79;97031.22;5050514;28;1714;-50
2021/07/06 00:17:29;;;;;;;;;;;;;;;29.26;36.69;97027.41;5051964;28;1165;-50
2021/07/06 00:19:55;;;;;;;;;;;;;;;29.25;36.94;97030.22;5049660;28;1580;-50
2021/07/06 00:22:20;;;;;;;;;;;;;;;29.29;36.64;97028.88;5051646;28;1149;-51
2021/07/06 00:24:45;;;;;;;;;;;;;;;29.33;36.49;97025.78;5051786;28;1371;-51
2021/07/06 00:27:11;;;;;;;;;;;;;;;29.30;36.70;97026.06;5050337;28;1901;-51
2021/07/06 00:29:36;;;;;;;;;;;;;;;29.30;36.57;97025.25;5051757;28;1164;-49
2021/07/06 00:32:01;;;;;;;;;;;;;;;29.25;36.53;97032.88;5050996;28;1256;-50
2021/07/06 00:34:26;;;;;;;;;;;;;;;29.31;36.35;97026.91;5050811;28;1647;-50
2021/07/06 00:36:52;;;;;;;;;;;;;;;29.31;36.31;97026.91;5051224;28;1216;-50
2021/07/06 00:39:17;;;;;;;;;;;;;;;29.28;36.45;97032.53;5050754;28;1240;-50
2021/07/06 00:41:44;;;;;;;;;;;;;;;29.19;36.52;97029.00;5051333;28;1185;-50
2021/07/06 00:44:15;;;;;;;;;;;;;;;29.30;36.43;97026.06;5049485;28;1517;-50
2021/07/06 00:46:41;;;;;;;;;;;;;;;29.16;36.71;97029.34;5050708;28;1953;-50
2021/07/06 00:49:06;;;;;;;;;;;;;;;29.39;36.61;97035.78;5048933;28;1612;-50
2021/07/06 00:51:31;;;;;;;;;;;;;;;29.20;36.75;97028.00;5051024;28;1291;-50
2021/07/06 00:53:56;;;;;;;;;;;;;;;29.29;36.67;97024.41;5050810;28;1314;-50
2021/07/06 00:56:22;;;;;;;;;;;;;;;29.26;36.78;97034.53;5049227;28;1683;-50
2021/07/06 00:58:47;;;;;;;;;;;;;;;29.39;36.22;97029.63;5047747;28;1121;-50
2021/07/06 01:01:12;;;;;;;;;;;;;;;29.30;36.29;97020.75;5045521;28;1109;-51
2021/07/06 01:03:38;;;;;;;;;;;;;;;29.30;36.28;97031.38;5028793;28;1577;-51
2021/07/06 01:06:03;;;;;;;;;;;;;;;29.31;36.42;97018.94;5074689;22;1918;-82
2021/07/06 01:08:28;;;;;;;;;;;;;;;29.18;36.62;97020.22;5054143;28;1240;-82
2021/07/06 01:10:53;;;;;;;;;;;;;;;29.31;36.43;97021.59;5054762;28;1204;-81
2021/07/06 01:13:18;;;;;;;;;;;;;;;29.34;36.54;97016.81;5054612;28;1259;-82
2021/07/06 01:15:44;;;;;;;;;;;;;;;29.35;36.17;97012.34;5053713;28;1579;-82
2021/07/06 01:18:10;;;;;;;;;;;;;;;29.44;36.07;97006.91;5052191;28;1581;-82
2021/07/06 01:20:36;;;;;;;;;;;;;;;29.41;36.14;97011.72;5037827;28;1260;-82
2021/07/06 01:23:01;;;;;;;;;;;;;;;29.30;36.42;97006.66;5038286;28;1264;-82
2021/07/06 01:25:26;;;;;;;;;;;;;;;29.34;36.18;97008.00;5054206;28;1961;-82
2021/07/06 01:27:51;;;;;;;;;;;;;;;29.27;36.23;97006.97;5036499;28;1504;-82
2021/07/06 01:30:16;;;;;;;;;;;;;;;29.23;36.54;97006.47;5053854;28;1192;-82
2021/07/06 01:32:42;;;;;;;;;;;;;;;29.31;36.63;97006.53;5038662;28;1197;-82
2021/07/06 01:35:08;;;;;;;;;;;;;;;29.24;36.76;97009.97;5052747;28;1612;-82
2021/07/06 01:37:33;;;;;;;;;;;;;;;29.23;36.29;97001.16;5054036;28;950;-82
2021/07/06 01:39:59;;;;;;;;;;;;;;;29.29;36.30;97011.13;5053084;28;1204;-82
2021/07/06 01:42:24;;;;;;;;;;;;;;;29.22;36.59;97003.94;5053419;28;1588;-82
2021/07/06 01:45:08;;;;;;;;;;;;;;;29.23;36.65;97000.31;5053674;28;1192;-82
2021/07/06 01:47:37;;;;;;;;;;;;;;;29.15;36.68;97001.94;5053796;28;1902;-82
2021/07/06 01:50:02;;;;;;;;;;;;;;;29.26;36.21;96994.69;5068735;28;1595;-81
2021/07/06 01:52:28;;;;;;;;;;;;;;;29.30;36.37;96998.69;5058633;28;1135;-81
2021/07/06 01:54:53;;;;;;;;;;;;;;;29.27;36.40;96993.69;5053063;28;1160;-82
2021/07/06 01:57:18;;;;;;;;;;;;;;;29.18;36.73;96991.00;5048670;28;1651;-82
2021/07/06 01:59:44;;;;;;;;;;;;;;;29.25;36.34;96985.91;5054537;28;1227;-82
2021/07/06 02:02:09;;;;;;;;;;;;;;;29.15;36.85;96985.16;5052498;28;1181;-82
2021/07/06 02:04:34;;;;;;;;;;;;;;;29.17;36.38;96983.19;5048902;28;1497;-82
2021/07/06 02:06:59;;;;;;;;;;;;;;;29.15;36.88;96980.72;5048271;28;1902;-81
2021/07/06 02:09:24;;;;;;;;;;;;;;;29.22;36.50;96977.41;5050061;28;1144;-82
2021/07/06 02:11:49;;;;;;;;;;;;;;;29.20;36.36;96981.03;5050014;28;1089;-82
2021/07/06 02:14:16;;;;;;;;;;;;;;;28.94;37.21;96968.78;5047185;28;1603;-82
2021/07/06 02:16:41;;;;;;;;;;;;;;;28.94;37.11;96966.13;5031840;28;1453;-82
2021/07/06 02:19:07;;;;;;;;;;;;;;;29.18;36.63;96974.22;5032454;28;1606;-82
2021/07/06 02:21:32;;;;;;;;;;;;;;;29.15;36.49;96971.88;5049938;28;1251;-82
2021/07/06 02:23:57;;;;;;;;;;;;;;;29.20;36.45;96965.09;5049993;28;1223;-82
2021/07/06 02:26:22;;;;;;;;;;;;;;;29.13;36.70;96966.72;5048608;28;1898;-82
2021/07/06 02:28:47;;;;;;;;;;;;;;;28.80;37.25;96967.50;5032732;28;1138;-82
2021/07/06 02:31:12;;;;;;;;;;;;;;;29.04;36.99;96967.69;5033014;28;1089;-82
2021/07/06 02:33:38;;;;;;;;;;;;;;;29.17;36.72;96961.94;5049013;28;1661;-82
2021/07/06 02:36:06;;;;;;;;;;;;;;;29.23;36.72;96957.81;5033965;28;1286;-82
2021/07/06 02:38:32;;;;;;;;;;;;;;;29.29;36.64;96960.66;5033471;28;1236;-82
2021/07/06 02:40:57;;;;;;;;;;;;;;;29.21;36.35;96957.97;5015150;28;1550;-82
2021/07/06 02:43:22;;;;;;;;;;;;;;;29.18;36.49;96960.97;5031853;28;1688;-81
2021/07/06 02:45:47;;;;;;;;;;;;;;;29.17;36.83;96962.78;5034107;28;1976;-82
2021/07/06 02:48:13;;;;;;;;;;;;;;;29.25;36.40;96955.84;5048774;28;1680;-82
2021/07/06 02:50:40;;;;;;;;;;;;;;;29.28;36.67;96952.88;5032671;28;1248;-82
2021/07/06 02:53:05;;;;;;;;;;;;;;;29.12;36.89;96959.75;5049488;28;1188;-82
2021/07/06 02:55:30;;;;;;;;;;;;;;;29.16;36.44;96958.47;5049476;28;1269;-82
2021/07/06 02:57:56;;;;;;;;;;;;;;;29.09;36.91;96959.25;5032473;28;1625;-81
2021/07/06 03:00:21;;;;;;;;;;;;;;;29.25;36.43;96964.66;5035330;28;1160;-82
2021/07/06 03:02:47;;;;;;;;;;;;;;;29.17;36.52;96952.16;5053748;28;1169;-81
2021/07/06 03:05:13;;;;;;;;;;;;;;;29.20;36.59;96957.16;5034902;28;1704;-82
2021/07/06 03:07:38;;;;;;;;;;;;;;;29.19;36.75;96954.66;5051416;28;1902;-82
2021/07/06 03:10:04;;;;;;;;;;;;;;;29.16;36.74;96950.50;5053281;28;1204;-82
2021/07/06 03:12:29;;;;;;;;;;;;;;;29.15;36.74;96942.66;5036733;28;1153;-82
2021/07/06 03:14:54;;;;;;;;;;;;;;;29.13;36.92;96944.66;5052614;28;1576;-82
2021/07/06 03:17:20;;;;;;;;;;;;;;;29.22;36.56;96941.03;5053110;28;1376;-82
2021/07/06 03:19:45;;;;;;;;;;;;;;;29.19;36.46;96934.25;5035726;28;1590;-82
2021/07/06 03:22:10;;;;;;;;;;;;;;;29.24;36.47;96936.44;5034164;28;1245;-82
2021/07/06 03:24:35;;;;;;;;;;;;;;;29.12;36.70;96941.16;5053307;28;1285;-82
2021/07/06 03:27:00;;;;;;;;;;;;;;;29.17;36.77;96933.56;5050715;28;1905;-81
2021/07/06 03:29:26;;;;;;;;;;;;;;;29.18;36.49;96937.88;5053149;28;1164;-81
2021/07/06 03:31:51;;;;;;;;;;;;;;;29.23;36.32;96945.41;5049722;28;1611;-81
2021/07/06 03:34:16;;;;;;;;;;;;;;;29.13;36.71;96937.53;5052241;28;1663;-81
2021/07/06 03:36:41;;;;;;;;;;;;;;;29.09;36.57;96944.16;5052626;28;1282;-81
2021/07/06 03:39:06;;;;;;;;;;;;;;;29.18;36.60;96940.53;5052603;28;1338;-82
2021/07/06 03:41:32;;;;;;;;;;;;;;;29.18;36.50;96937.06;5051323;28;1512;-81
2021/07/06 03:43:57;;;;;;;;;;;;;;;29.27;36.44;96937.94;5053172;28;1294;-81
2021/07/06 03:46:24;;;;;;;;;;;;;;;29.20;36.83;96933.25;5052477;28;1965;-81
2021/07/06 03:48:49;;;;;;;;;;;;;;;29.21;36.53;96931.41;5050301;28;1580;-81
2021/07/06 03:51:14;;;;;;;;;;;;;;;29.19;36.36;96933.41;5052514;28;1065;-81
2021/07/06 03:53:40;;;;;;;;;;;;;;;29.23;36.21;96923.28;5052365;28;1159;-81
2021/07/06 03:56:05;;;;;;;;;;;;;;;29.24;36.82;96941.75;5052274;28;1223;-82
2021/07/06 03:58:30;;;;;;;;;;;;;;;29.26;36.20;96939.75;5051000;28;1576;-81
2021/07/06 04:00:55;;;;;;;;;;;;;;;29.25;36.57;96942.56;5052216;28;1157;-81
2021/07/06 04:03:25;;;;;;;;;;;;;;;29.23;36.73;96936.56;5051274;28;1600;-81
2021/07/06 04:05:50;;;;;;;;;;;;;;;29.19;36.65;96942.22;5033981;28;1906;-81
2021/07/06 04:08:15;;;;;;;;;;;;;;;29.25;36.44;96943.41;5035829;28;1062;-81
2021/07/06 04:10:40;;;;;;;;;;;;;;;29.24;36.69;96940.91;5051770;28;1302;-81
2021/07/06 04:13:05;;;;;;;;;;;;;;;29.01;36.99;96941.47;5051952;28;1173;-81
2021/07/06 04:15:31;;;;;;;;;;;;;;;29.22;36.42;96948.19;5051388;28;1533;-82
2021/07/06 04:17:56;;;;;;;;;;;;;;;29.19;36.70;96944.84;5051862;28;1607;-81
2021/07/06 04:20:21;;;;;;;;;;;;;;;29.20;36.44;96943.88;5051462;28;1218;-81
2021/07/06 04:22:48;;;;;;;;;;;;;;;29.02;36.80;96948.44;5052344;28;1185;-81
2021/07/06 04:25:13;;;;;;;;;;;;;;;29.20;36.71;96941.22;5034914;28;1370;-81
2021/07/06 04:27:38;;;;;;;;;;;;;;;29.21;36.47;96950.00;5051484;28;1965;-82
2021/07/06 04:30:04;;;;;;;;;;;;;;;29.17;36.62;96957.47;5050703;28;1169;-82
2021/07/06 04:32:29;;;;;;;;;;;;;;;29.20;36.73;96951.84;5034943;28;1235;-81
2021/07/06 04:34:55;;;;;;;;;;;;;;;29.18;36.58;96955.66;5051160;28;1638;-82
2021/07/06 04:37:20;;;;;;;;;;;;;;;29.22;36.60;96953.50;5034053;28;1375;-81
2021/07/06 04:39:45;;;;;;;;;;;;;;;29.18;36.73;96948.50;5045203;28;1634;-81
2021/07/06 04:42:16;;;;;;;;;;;;;;;29.19;36.73;96947.50;5051380;28;1307;-81
2021/07/06 04:44:41;;;;;;;;;;;;;;;29.18;36.65;96943.19;5027402;28;2057;-82
2021/07/06 04:47:06;;;;;;;;;;;;;;;29.24;36.66;96948.88;5032885;28;1906;-82
2021/07/06 04:49:31;;;;;;;;;;;;;;;29.13;36.69;96949.97;5049203;28;1532;-81
2021/07/06 04:51:56;;;;;;;;;;;;;;;29.19;36.45;96944.03;5034467;28;1142;-82
2021/07/06 04:54:24;;;;;;;;;;;;;;;29.24;36.49;96931.13;5051181;28;1176;-82
2021/07/06 04:56:51;;;;;;;;;;;;;;;29.15;36.65;96940.88;5050397;28;1512;-82
2021/07/06 04:59:16;;;;;;;;;;;;;;;29.14;36.68;96938.34;5037633;28;1043;-82
2021/07/06 05:01:41;;;;;;;;;;;;;;;29.19;36.42;96941.38;5050259;28;1412;-81
2021/07/06 05:04:06;;;;;;;;;;;;;;;29.22;36.47;96942.88;5050291;28;1544;-82
2021/07/06 05:06:31;;;;;;;;;;;;;;;29.28;36.33;96940.41;5048549;28;2384;-82
2021/07/06 05:08:57;;;;;;;;;;;;;;;29.10;36.85;96929.88;5051688;28;1189;-81
2021/07/06 05:11:23;;;;;;;;;;;;;;;29.14;36.73;96935.69;5038208;28;1664;-81
2021/07/06 05:13:48;;;;;;;;;;;;;;;29.19;36.52;96938.72;5033733;28;1046;-81
2021/07/06 05:16:13;;;;;;;;;;;;;;;28.96;37.12;96945.56;5049426;28;1355;-82
2021/07/06 05:18:38;;;;;;;;;;;;;;;28.92;37.23;96935.28;5015944;28;1598;-81
2021/07/06 05:21:03;;;;;;;;;;;;;;;29.22;36.64;96938.38;5049625;28;1367;-82
2021/07/06 05:23:29;;;;;;;;;;;;;;;28.97;37.00;96939.25;5039186;28;1117;-81
2021/07/06 05:25:54;;;;;;;;;;;;;;;29.10;36.95;96929.88;5067556;22;3544;-49
2021/07/06 05:28:19;;;;;;;;;;;;;;;29.27;36.46;96930.78;5065287;28;1522;-50
2021/07/06 05:30:44;;;;;;;;;;;;;;;29.10;36.84;96921.91;5068370;28;1664;-48
2021/07/06 05:33:10;;;;;;;;;;;;;;;28.22;38.77;96922.94;5061992;28;3348;-50
2021/07/06 05:35:35;;;;;;;;;;;;;;;28.15;38.71;96919.22;5061892;28;1930;-52
2021/07/06 05:38:02;;;;;;;;;;;;;;;28.59;37.76;96918.25;5059947;28;2233;-49
2021/07/06 05:40:27;;;;;;;;;;;;;;;28.72;37.96;96915.19;5061951;28;2394;-50
2021/07/06 05:42:53;;;;;;;;;;;;;;;28.74;37.95;96913.22;5058072;28;2051;-50
2021/07/06 05:45:18;;;;;;;;;;;;;;;28.81;37.73;96918.72;5060723;28;1884;-50
2021/07/06 05:47:43;;;;;;;;;;;;;;;28.26;38.59;96916.31;5063759;28;2131;-54
2021/07/06 05:50:10;;;;;;;;;;;;;;;27.43;40.74;96921.78;5057302;28;1946;-58
2021/07/06 05:52:35;;;;;;;;;;;;;;;27.97;39.56;96927.19;5058853;28;1895;-53
2021/07/06 05:55:04;;;;;;;;;;;;;;;27.46;40.62;96923.28;5058596;28;2154;-52
2021/07/06 05:57:29;;;;;;;;;;;;;;;28.12;39.31;96922.16;5059469;28;1938;-53
2021/07/06 05:59:58;;;;;;;;;;;;;;;28.70;37.88;96925.16;5065325;28;1900;-55
2021/07/06 06:02:23;;;;;;;;;;;;;;;28.68;37.96;96927.13;5058849;28;1907;-54
2021/07/06 06:04:48;;;;;;;;;;;;;;;28.80;37.60;96933.00;5057419;28;2396;-55
2021/07/06 06:07:13;;;;;;;;;;;;;;;27.88;39.57;96917.47;5059972;28;1975;-53
2021/07/06 06:09:38;;;;;;;;;;;;;;;27.69;40.23;96910.50;5062547;28;2030;-53
2021/07/06 06:12:04;;;;;;;;;;;;;;;27.67;40.02;96918.59;5058135;28;3678;-57
2021/07/06 06:14:29;;;;;;;;;;;;;;;27.43;40.85;96905.06;5057225;28;2013;-56
2021/07/06 06:16:54;;;;;;;;;;;;;;;27.80;39.51;96911.09;5060822;28;1900;-54
2021/07/06 06:19:19;;;;;;;;;;;;;;;27.44;40.71;96907.56;5038991;28;2898;-56
2021/07/06 06:21:45;;;;;;;;;;;;;;;28.14;39.35;96926.34;5059649;28;2219;-53
2021/07/06 06:24:10;;;;;;;;;;;;;;;28.73;38.05;96919.50;5059122;28;2039;-53
2021/07/06 06:26:35;;;;;;;;;;;;;;;28.29;38.80;96908.94;5056838;28;1919;-55
2021/07/06 06:29:00;;;;;;;;;;;;;;;28.16;39.40;96902.31;5063681;28;1939;-55
2021/07/06 06:31:25;;;;;;;;;;;;;;;28.25;38.93;96910.19;5058170;28;2199;-54
2021/07/06 06:33:51;;;;;;;;;;;;;;;28.30;39.15;96904.47;5060451;28;1883;-54
2021/07/06 06:36:16;;;;;;;;;;;;;;;28.49;38.64;96906.09;5062093;28;1902;-55
2021/07/06 06:38:41;;;;;;;;;;;;;;;28.43;38.73;96902.22;5061820;28;2009;-55
2021/07/06 06:41:06;;;;;;;;;;;;;;;28.53;38.62;96907.47;5063336;28;2406;-53
2021/07/06 06:43:31;;;;;;;;;;;;;;;28.57;38.28;96909.63;5060774;28;1903;-54
2021/07/06 06:45:57;;;;;;;;;;;;;;;28.57;38.31;96904.31;5059355;28;2508;-54
2021/07/06 06:48:22;;;;;;;;;;;;;;;28.69;38.24;96909.38;5059997;28;3759;-53
2021/07/06 06:50:47;;;;;;;;;;;;;;;28.78;37.81;96909.28;5064286;28;1967;-55
2021/07/06 06:53:12;;;;;;;;;;;;;;;28.60;38.45;96895.25;5061484;28;1873;-54
2021/07/06 06:55:38;;;;;;;;;;;;;;;28.82;37.90;96901.81;5058424;28;2162;-54
2021/07/06 06:58:03;;;;;;;;;;;;;;;28.88;37.85;96899.38;5058024;28;2194;-55
2021/07/06 07:00:30;;;;;;;;;;;;;;;28.05;39.59;96890.16;5064362;28;2014;-56
2021/07/06 07:02:56;;;;;;;;;;;;;;;28.65;38.36;96893.75;5060974;28;1907;-56
2021/07/06 07:05:21;;;;;;;;;;;;;;;28.91;37.65;96884.97;5060897;28;1899;-56
2021/07/06 07:07:46;;;;;;;;;;;;;;;28.03;39.67;96877.03;5077369;22;2187;-58
2021/07/06 07:10:11;;;;;;;;;;;;;;;28.86;37.96;96877.47;5090533;28;1096;-57
2021/07/06 07:12:37;;;;;;;;;;;;;;;28.90;37.56;96870.03;5086982;28;1747;-56
2021/07/06 07:15:09;;;;;;;;;;;;;;;28.97;37.46;96863.09;5091463;28;1620;-58
2021/07/06 07:17:34;;;;;;;;;;;;;;;28.87;37.50;96859.72;5089618;28;1370;-58
2021/07/06 07:19:59;;;;;;;;;;;;;;;29.02;37.31;96857.34;5089647;28;1621;-57
2021/07/06 07:22:25;;;;;;;;;;;;;;;29.12;37.18;96863.34;5092362;28;1200;-57
2021/07/06 07:24:50;;;;;;;;;;;;;;;28.73;37.92;96870.91;5087457;28;1713;-55
2021/07/06 07:27:15;;;;;;;;;;;;;;;28.92;37.77;96873.41;5089800;28;1979;-56
2021/07/06 07:29:40;;;;;;;;;;;;;;;28.92;37.61;96866.25;5087667;28;1442;-56
2021/07/06 07:32:06;;;;;;;;;;;;;;;28.99;37.30;96863.78;5089226;28;1116;-56
2021/07/06 07:34:31;;;;;;;;;;;;;;;28.81;38.15;96871.78;5089504;28;1636;-56
2021/07/06 07:36:57;;;;;;;;;;;;;;;28.99;37.61;96874.41;5088982;28;1465;-56
2021/07/06 07:39:22;;;;;;;;;;;;;;;28.92;37.79;96866.25;5091333;28;1124;-55
2021/07/06 07:41:47;;;;;;;;;;;;;;;28.93;37.53;96872.41;5086585;28;1534;-56
2021/07/06 07:44:12;;;;;;;;;;;;;;;28.93;37.80;96872.41;5088247;28;1453;-56
2021/07/06 07:46:38;;;;;;;;;;;;;;;29.06;37.41;96866.63;5091040;28;1901;-56
2021/07/06 07:49:03;;;;;;;;;;;;;;;29.10;37.51;96866.16;5091016;28;1648;-56
2021/07/06 07:51:28;;;;;;;;;;;;;;;29.00;37.62;96868.13;5092235;28;1473;-56
2021/07/06 07:53:53;;;;;;;;;;;;;;;29.02;37.47;96860.81;5090687;28;1120;-56
2021/07/06 07:56:18;;;;;;;;;;;;;;;29.12;37.20;96863.34;5091714;28;1153;-56
2021/07/06 07:58:44;;;;;;;;;;;;;;;29.07;37.34;96858.53;5091086;28;1641;-56
2021/07/06 08:01:09;;;;;;;;;;;;;;;28.86;37.52;96855.41;5089908;28;1314;-57
2021/07/06 08:03:34;;;;;;;;;;;;;;;28.73;37.93;96855.00;5089555;28;1573;-55
2021/07/06 08:05:59;;;;;;;;;;;;;;;28.94;37.45;96847.50;5088573;28;1897;-56
2021/07/06 08:08:25;;;;;;;;;;;;;;;28.87;37.69;96841.97;5091828;28;1319;-55
2021/07/06 08:10:53;;;;;;;;;;;;;;;28.86;37.80;96844.78;5091852;28;1214;-54
2021/07/06 08:13:22;;;;;;;;;;;;;;;29.02;37.54;96844.06;5090276;28;1229;-56
2021/07/06 08:15:47;;;;;;;;;;;;;;;29.18;36.87;96846.78;5090443;28;1553;-54
2021/07/06 08:18:12;;;;;;;;;;;;;;;28.84;38.08;96842.31;5089939;28;1578;-55
2021/07/06 08:20:37;;;;;;;;;;;;;;;29.14;37.31;96840.94;5092279;28;1136;-54
2021/07/06 08:23:02;;;;;;;;;;;;;;;28.82;37.89;96838.13;5089897;28;1258;-56
2021/07/06 08:25:27;;;;;;;;;;;;;;;28.84;38.04;96836.16;5090971;28;1187;-56
2021/07/06 08:27:53;;;;;;;;;;;;;;;28.89;37.66;96836.50;5089603;28;2005;-54
2021/07/06 08:30:18;;;;;;;;;;;;;;;29.08;37.39;96836.28;5091979;28;1089;-56
2021/07/06 08:32:43;;;;;;;;;;;;;;;28.96;37.48;96834.91;5091355;28;1521;-56
2021/07/06 08:35:10;;;;;;;;;;;;;;;28.89;37.69;96836.50;5089349;28;1561;-55
2021/07/06 08:37:35;;;;;;;;;;;;;;;28.99;37.17;96831.09;5090046;28;1476;-57
2021/07/06 08:40:00;;;;;;;;;;;;;;;28.99;37.30;96833.75;5091369;28;1159;-55
2021/07/06 08:42:26;;;;;;;;;;;;;;;28.87;37.54;96822.56;5090670;28;1582;-56
2021/07/06 08:44:51;;;;;;;;;;;;;;;29.11;37.32;96821.84;5074121;28;1377;-54
2021/07/06 08:47:16;;;;;;;;;;;;;;;29.11;37.13;96816.53;5088305;28;1915;-55
2021/07/06 08:49:42;;;;;;;;;;;;;;;29.08;37.40;96816.88;5071595;28;1610;-56
2021/07/06 08:52:07;;;;;;;;;;;;;;;28.98;37.12;96819.63;5086814;28;1441;-56
2021/07/06 08:54:32;;;;;;;;;;;;;;;29.04;37.46;96826.97;5071812;28;1355;-55
2021/07/06 08:56:58;;;;;;;;;;;;;;;29.08;37.41;96827.50;5088197;28;1517;-56
2021/07/06 08:59:23;;;;;;;;;;;;;;;29.07;37.35;96828.47;5073736;28;985;-56
2021/07/06 09:01:51;;;;;;;;;;;;;;;28.81;37.99;96837.28;5071811;28;1502;-56
2021/07/06 09:04:16;;;;;;;;;;;;;;;29.01;37.17;96840.56;5087962;28;1723;-54
2021/07/06 09:06:54;;;;;;;;;;;;;;;29.11;36.94;96830.66;5088708;28;1914;-56
2021/07/06 09:09:23;;;;;;;;;;;;;;;29.04;37.30;96821.66;5089793;28;1330;-55
2021/07/06 09:11:49;;;;;;;;;;;;;;;28.78;37.82;96828.84;5089488;28;1182;-56
2021/07/06 09:14:14;;;;;;;;;;;;;;;28.99;37.47;96826.59;5090047;28;1568;-56
2021/07/06 09:16:40;;;;;;;;;;;;;;;29.10;37.00;96826.34;5090173;28;1367;-55
2021/07/06 09:19:24;;;;;;;;;;;;;;;29.08;37.33;96825.69;5089164;28;1629;-56
2021/07/06 09:22:08;;;;;;;;;;;;;;;29.01;37.20;96822.00;5088712;28;1484;-56
2021/07/06 09:24:33;;;;;;;;;;;;;;;28.92;37.43;96820.31;5089825;28;1290;-56
2021/07/06 09:26:58;;;;;;;;;;;;;;;28.71;37.77;96822.50;5089791;28;1975;-55
2021/07/06 09:29:26;;;;;;;;;;;;;;;28.96;37.57;96815.50;5070580;28;1855;-55
2021/07/06 09:31:52;;;;;;;;;;;;;;;29.08;37.00;96824.84;5091002;28;1243;-56
2021/07/06 09:34:17;;;;;;;;;;;;;;;29.00;37.42;96823.00;5090088;28;1625;-56
2021/07/06 09:36:43;;;;;;;;;;;;;;;28.94;37.51;96814.84;5091343;28;1250;-56
2021/07/06 09:39:08;;;;;;;;;;;;;;;29.11;37.31;96806.75;5089233;28;1375;-56
2021/07/06 09:41:33;;;;;;;;;;;;;;;28.96;37.23;96802.22;5087394;28;1589;-56
2021/07/06 09:44:14;;;;;;;;;;;;;;;28.90;37.61;96801.03;5089018;28;1429;-56
2021/07/06 09:46:49;;;;;;;;;;;;;;;28.94;37.39;96801.56;5089597;28;1910;-56
2021/07/06 09:49:19;;;;;;;;;;;;;;;28.88;37.79;96795.84;5087684;28;1601;-56
2021/07/06 09:51:44;;;;;;;;;;;;;;;29.05;37.05;96803.91;5089843;28;1445;-56
2021/07/06 09:54:09;;;;;;;;;;;;;;;29.09;37.26;96792.00;5090668;28;1044;-56
2021/07/06 09:56:39;;;;;;;;;;;;;;;29.01;37.12;96803.41;5090079;28;1196;-56
2021/07/06 09:59:05;;;;;;;;;;;;;;;29.02;37.05;96805.06;5087491;28;1644;-56
2021/07/06 10:01:30;;;;;;;;;;;;;;;29.13;36.98;96809.25;5090225;28;1171;-54
2021/07/06 10:03:56;;;;;;;;;;;;;;;28.99;37.19;96802.72;5086717;28;1593;-56
2021/07/06 10:06:25;;;;;;;;;;;;;;;28.87;37.63;96801.34;5085547;28;1905;-55
2021/07/06 10:08:50;;;;;;;;;;;;;;;28.99;37.30;96802.72;5087337;28;1394;-56
2021/07/06 10:11:16;;;;;;;;;;;;;;;28.83;37.63;96794.66;5087796;28;1358;-55
2021/07/06 10:13:41;;;;;;;;;;;;;;;29.06;37.34;96795.78;5071559;28;1251;-54
2021/07/06 10:16:06;;;;;;;;;;;;;;;29.15;37.04;96792.19;5086118;28;1653;-56
2021/07/06 10:18:33;;;;;;;;;;;;;;;29.12;37.06;96792.47;5088078;28;1704;-55
2021/07/06 10:20:59;;;;;;;;;;;;;;;29.07;37.17;96780.69;5069253;28;1355;-56
2021/07/06 10:23:24;;;;;;;;;;;;;;;28.93;37.41;96784.81;5089519;28;1151;-54
2021/07/06 10:25:51;;;;;;;;;;;;;;;29.01;37.06;96778.69;5070355;28;1379;-56
2021/07/06 10:28:16;;;;;;;;;;;;;;;28.92;37.41;96789.28;5087161;28;2085;-56
2021/07/06 10:30:42;;;;;;;;;;;;;;;29.08;36.90;96788.50;5070795;28;1361;-56
2021/07/06 10:33:26;;;;;;;;;;;;;;;29.10;36.91;96788.34;5088326;28;1597;-55
2021/07/06 10:35:51;;;;;;;;;;;;;;;28.83;37.79;96786.72;5088410;28;1204;-56
2021/07/06 10:38:29;;;;;;;;;;;;;;;28.99;37.21;96788.63;5087818;28;1386;-55
2021/07/06 10:40:57;;;;;;;;;;;;;;;28.92;37.61;96786.63;5086899;28;1569;-56
2021/07/06 10:43:31;;;;;;;;;;;;;;;28.83;37.69;96789.34;5086174;28;1552;-54
2021/07/06 10:46:14;;;;;;;;;;;;;;;28.80;37.79;96787.03;5085647;28;1933;-56
2021/07/06 10:48:41;;;;;;;;;;;;;;;28.96;37.33;96786.28;5087058;28;1573;-56
2021/07/06 10:51:06;;;;;;;;;;;;;;;28.90;37.29;96779.81;5087789;28;1362;-56
2021/07/06 10:53:32;;;;;;;;;;;;;;;28.86;37.35;96771.31;5089575;28;1176;-55
2021/07/06 10:56:01;;;;;;;;;;;;;;;28.98;37.28;96777.16;5089481;28;1199;-54
2021/07/06 10:58:45;;;;;;;;;;;;;;;28.93;37.43;96776.84;5087759;28;1778;-55
2021/07/06 11:01:10;;;;;;;;;;;;;;;28.91;37.20;96778.81;5087122;28;1342;-56
2021/07/06 11:03:39;;;;;;;;;;;;;;;28.89;37.49;96772.81;5089282;28;1610;-56
2021/07/06 11:06:04;;;;;;;;;;;;;;;28.93;37.33;96768.88;5088564;28;1978;-56
2021/07/06 11:08:41;;;;;;;;;;;;;;;28.87;37.50;96766.81;5088692;28;1911;-55
2021/07/06 11:11:07;;;;;;;;;;;;;;;28.92;37.48;96770.69;5069549;28;1216;-55
2021/07/06 11:13:32;;;;;;;;;;;;;;;28.91;37.50;96765.53;5069269;28;1386;-55
2021/07/06 11:15:58;;;;;;;;;;;;;;;29.04;37.16;96760.59;5088015;28;1597;-55
2021/07/06 11:18:36;;;;;;;;;;;;;;;28.84;37.12;96748.59;5087533;28;1553;-55
2021/07/06 11:21:01;;;;;;;;;;;;;;;28.89;37.22;96756.88;5093072;28;1201;-56
2021/07/06 11:23:30;;;;;;;;;;;;;;;28.77;37.58;96758.19;5093640;28;1230;-54
2021/07/06 11:26:02;;;;;;;;;;;;;;;28.92;37.23;96760.09;5091856;28;1898;-55
2021/07/06 11:28:28;;;;;;;;;;;;;;;28.85;37.31;96756.38;5091533;28;1559;-56
2021/07/06 11:30:54;;;;;;;;;;;;;;;28.85;37.36;96750.25;5072882;28;1411;-56
2021/07/06 11:33:22;;;;;;;;;;;;;;;28.84;37.40;96756.56;5090999;28;1657;-55
2021/07/06 11:35:49;;;;;;;;;;;;;;;28.86;37.54;96755.38;5090065;28;1536;-56
2021/07/06 11:38:14;;;;;;;;;;;;;;;28.89;37.26;96748.91;5091748;28;1299;-54
2021/07/06 11:40:41;;;;;;;;;;;;;;;28.90;37.49;96746.13;5090973;28;1302;-55
2021/07/06 11:43:08;;;;;;;;;;;;;;;28.82;37.48;96743.41;5091424;28;1556;-55
2021/07/06 11:45:33;;;;;;;;;;;;;;;28.89;37.62;96740.94;5090975;28;1759;-56
2021/07/06 11:48:02;;;;;;;;;;;;;;;28.99;37.30;96730.22;5074176;28;1902;-54
2021/07/06 11:50:28;;;;;;;;;;;;;;;28.95;37.45;96724.41;5092101;28;1021;-56
2021/07/06 11:52:53;;;;;;;;;;;;;;;28.94;37.22;96736.03;5090121;28;1584;-55
2021/07/06 11:55:25;;;;;;;;;;;;;;;28.92;37.24;96738.84;5092011;28;1065;-56
2021/07/06 11:57:51;;;;;;;;;;;;;;;28.77;37.63;96736.94;5089512;28;1417;-56
2021/07/06 12:00:17;;;;;;;;;;;;;;;28.79;37.48;96738.44;5089954;28;1405;-56
2021/07/06 12:02:43;;;;;;;;;;;;;;;29.02;36.92;96735.22;5072853;28;1558;-55
2021/07/06 12:05:17;;;;;;;;;;;;;;;28.98;37.27;96731.22;5090537;28;1649;-55
2021/07/06 12:07:43;;;;;;;;;;;;;;;28.96;37.21;96727.91;5089836;28;1965;-54
2021/07/06 12:10:09;;;;;;;;;;;;;;;28.86;37.33;96735.97;5089633;28;1203;-56
2021/07/06 12:12:34;;;;;;;;;;;;;;;28.92;37.08;96736.19;5090037;28;1460;-54
2021/07/06 12:15:00;;;;;;;;;;;;;;;28.80;37.55;96733.97;5091464;28;1366;-55
2021/07/06 12:17:28;;;;;;;;;;;;;;;28.91;37.14;96729.22;5087913;28;1728;-55
2021/07/06 12:19:54;;;;;;;;;;;;;;;28.86;37.27;96734.16;5072461;28;1591;-54
2021/07/06 12:22:19;;;;;;;;;;;;;;;28.83;37.37;96726.50;5088870;28;1640;-55
2021/07/06 12:24:44;;;;;;;;;;;;;;;28.94;37.15;96730.72;5090948;28;1228;-56
2021/07/06 12:27:14;;;;;;;;;;;;;;;28.82;37.39;96731.97;5071746;28;1906;-55
2021/07/06 12:29:39;;;;;;;;;;;;;;;28.98;37.08;96729.38;5083168;28;1121;-54
2021/07/06 12:32:14;;;;;;;;;;;;;;;29.12;36.83;96733.25;5034167;28;1476;-56
2021/07/06 12:34:40;;;;;;;;;;;;;;;28.90;37.21;96746.13;5089798;28;1564;-56
2021/07/06 12:37:05;;;;;;;;;;;;;;;28.99;37.03;96746.16;5091092;28;1303;-55
2021/07/06 12:39:33;;;;;;;;;;;;;;;29.00;36.89;96751.31;5092121;28;1203;-56
2021/07/06 12:41:58;;;;;;;;;;;;;;;28.91;37.08;96746.94;5088335;28;1722;-56
2021/07/06 12:44:31;;;;;;;;;;;;;;;28.88;37.45;96756.03;5089371;28;1399;-56
2021/07/06 12:47:10;;;;;;;;;;;;;;;28.96;37.18;96747.31;5090029;28;1971;-56
2021/07/06 12:49:35;;;;;;;;;;;;;;;28.94;37.39;96751.13;5070341;28;1579;-55
2021/07/06 12:52:00;;;;;;;;;;;;;;;28.88;37.47;96750.75;5087427;28;1461;-55